Time;durP1;ratioP1;P1;durP2;ratioP2;P2;SDS_P1;SDS_P2;PMS_P1;PMS_P2;Temp;Humidity;BMP_temperature;BMP_pressure;BME280_temperature;BME280_humidity;BME280_pressure;Samples;Min_cycle;Max_cycle;Signal;HPM_P1;HPM_P2
2022/10/04 00:02:28;;;;;;;13.38;8.50;;;;;;;11.22;nan;102176.72;5079288;28;20032;-56
2022/10/04 00:04:58;;;;;;;14.75;9.07;;;;;;;11.19;nan;102171.50;5071800;28;20036;-56
2022/10/04 00:07:27;;;;;;;14.05;8.52;;;;;;;11.01;nan;102133.97;5071510;28;20044;-54
2022/10/04 00:09:56;;;;;;;14.63;8.40;;;;;;;11.05;nan;102133.91;5071632;28;20166;-53
2022/10/04 00:12:37;;;;;;;17.63;8.63;;;;;;;11.27;nan;102176.63;5072661;28;20437;-57
2022/10/04 00:15:30;;;;;;;14.95;8.60;;;;;;;11.23;nan;102165.28;5057393;28;20032;-54
2022/10/04 00:18:11;;;;;;;15.70;8.98;;;;;;;11.00;nan;102126.97;5058028;28;20063;-56
2022/10/04 00:20:49;;;;;;;14.90;8.15;;;;;;;11.23;nan;102182.88;5095593;28;20032;-50
2022/10/04 00:23:23;;;;;;;16.65;8.02;;;;;;;10.89;nan;102106.03;5095515;28;20040;-59
2022/10/04 00:25:57;;;;;;;15.45;9.10;;;;;;;11.22;nan;102168.81;5095772;28;20031;-58
2022/10/04 00:28:23;;;;;;;20.80;8.95;;;;;;;11.26;nan;102167.00;5077242;28;20032;-57
2022/10/04 00:31:06;;;;;;;18.35;8.57;;;;;;;11.25;nan;102162.63;5095190;28;20034;-52
2022/10/04 00:33:34;;;;;;;13.93;8.23;;;;;;;11.23;nan;102161.78;5095208;28;20103;-60
2022/10/04 00:36:00;;;;;;;15.20;8.40;;;;;;;11.18;nan;102158.31;5094814;28;20036;-58
2022/10/04 00:38:26;;;;;;;11.57;8.65;;;;;;;11.13;nan;102162.78;5095298;28;20036;-56
2022/10/04 00:41:01;;;;;;;15.80;9.07;;;;;;;10.86;nan;102127.13;5077247;28;20027;-57
2022/10/04 00:43:42;;;;;;;17.40;9.73;;;;;;;11.11;nan;102176.00;5095460;28;20106;-56
2022/10/04 00:46:14;;;;;;;13.38;8.48;;;;;;;10.94;nan;102145.50;5076957;28;20081;-53
2022/10/04 00:48:52;;;;;;;14.27;9.13;;;;;;;11.03;nan;102154.13;5094836;28;20123;-55
2022/10/04 00:51:43;;;;;;;18.48;9.65;;;;;;;11.12;nan;102161.91;5094995;28;20463;-55
2022/10/04 00:54:22;;;;;;;16.00;8.90;;;;;;;11.04;nan;102157.63;5076759;28;20071;-58
2022/10/04 00:56:56;;;;;;;19.70;9.75;;;;;;;10.75;nan;102102.69;5095092;28;20112;-55
2022/10/04 00:59:43;;;;;;;15.65;8.98;;;;;;;10.80;nan;102100.88;5076769;28;20588;-59
2022/10/04 01:02:30;;;;;;;14.68;8.98;;;;;;;11.06;nan;102143.53;5076721;28;20459;-56
2022/10/04 01:05:09;;;;;;;14.45;9.07;;;;;;;11.01;nan;102136.59;5076316;28;20032;-55
2022/10/04 01:07:38;;;;;;;17.60;8.45;;;;;;;10.94;nan;102142.84;5094534;28;20052;-57
2022/10/04 01:10:11;;;;;;;19.48;9.68;;;;;;;10.52;nan;102076.69;5076411;28;20040;-53
2022/10/04 01:12:39;;;;;;;16.83;10.02;;;;;;;10.83;nan;102131.59;5076535;28;20028;-55
2022/10/04 01:15:10;;;;;;;18.38;9.32;;;;;;;10.79;nan;102128.13;5094550;28;20051;-55
2022/10/04 01:17:35;;;;;;;14.27;9.32;;;;;;;10.63;nan;102106.38;5076548;28;20039;-54
2022/10/04 01:20:01;;;;;;;13.75;9.50;;;;;;;10.60;nan;102130.09;5094396;28;20036;-52
2022/10/04 01:22:34;;;;;;;17.80;9.95;;;;;;;10.62;nan;102132.72;5094242;28;20028;-59
2022/10/04 01:24:59;;;;;;;17.52;9.68;;;;;;;10.53;nan;102110.03;5075208;28;20041;-54
2022/10/04 01:27:42;;;;;;;15.13;10.52;;;;;;;10.59;nan;102117.84;5093955;28;20028;-54
2022/10/04 01:30:13;;;;;;;20.50;10.73;;;;;;;10.24;nan;102058.59;5094052;28;20036;-56
2022/10/04 01:32:39;;;;;;;17.08;11.18;;;;;;;10.15;nan;102054.31;5094606;28;20035;-55
2022/10/04 01:35:10;;;;;;;17.88;10.77;;;;;;;10.43;nan;102096.97;5094248;28;20036;-56
2022/10/04 01:37:38;;;;;;;19.00;11.55;;;;;;;10.26;nan;102056.81;5076198;28;20036;-53
2022/10/04 01:40:04;;;;;;;20.50;11.32;;;;;;;9.51;nan;101914.75;5075990;28;20035;-56
2022/10/04 01:42:38;;;;;;;18.50;11.50;;;;;;;10.51;nan;102085.44;5093564;28;20111;-57
2022/10/04 01:45:10;;;;;;;21.45;11.02;;;;;;;10.14;nan;102031.53;5076102;28;20028;-57
2022/10/04 01:47:56;;;;;;;17.63;11.90;;;;;;;10.43;nan;102086.44;5075951;28;20114;-53
2022/10/04 01:50:30;;;;;;;23.90;11.45;;;;;;;10.37;nan;102087.38;5076137;28;20413;-56
2022/10/04 01:53:29;;;;;;;21.00;12.85;;;;;;;10.40;nan;102068.03;5075610;28;20394;-56
2022/10/04 01:56:22;;;;;;;20.80;12.02;;;;;;;10.43;nan;102068.00;5073319;28;20033;-54
2022/10/04 01:58:51;;;;;;;18.27;11.77;;;;;;;10.34;nan;102042.69;5057747;28;20373;-55
2022/10/04 02:01:33;;;;;;;19.45;12.63;;;;;;;10.05;nan;101987.75;5054450;28;20056;-53
2022/10/04 02:04:24;;;;;;;18.55;12.70;;;;;;;10.10;nan;101998.19;5072777;28;20070;-55
2022/10/04 02:06:53;;;;;;;20.65;13.18;;;;;;;10.40;nan;102047.88;5055225;28;20028;-58
2022/10/04 02:09:21;;;;;;;21.95;13.93;;;;;;;10.42;nan;102026.81;5055392;28;20061;-56
2022/10/04 02:11:51;;;;;;;22.73;13.80;;;;;;;10.21;nan;101990.22;5055569;28;20025;-57
2022/10/04 02:14:19;;;;;;;18.93;13.47;;;;;;;10.42;nan;102019.75;5055851;28;20456;-60
2022/10/04 02:16:46;;;;;;;25.73;13.65;;;;;;;10.26;nan;102002.44;5055350;28;20513;-54
2022/10/04 02:19:11;;;;;;;23.77;14.00;;;;;;;10.16;nan;101972.72;5055631;28;20127;-53
2022/10/04 02:21:37;;;;;;;26.10;13.80;;;;;;;10.27;nan;101988.41;5038631;28;20460;-53
2022/10/04 02:24:04;;;;;;;20.40;14.52;;;;;;;9.99;nan;101958.88;5072908;28;20044;-55
2022/10/04 02:26:29;;;;;;;22.73;14.77;;;;;;;10.19;nan;102008.66;5055407;28;20036;-54
2022/10/04 02:28:54;;;;;;;27.50;17.15;;;;;;;10.14;nan;102007.84;5083309;28;20503;-55
2022/10/04 02:34:08;;;;;;;20.33;14.50;;;;;;;10.02;nan;102007.94;5077993;28;20057;-54
2022/10/04 02:36:34;;;;;;;24.67;15.90;;;;;;;9.94;nan;102000.16;5075059;28;20040;-55
2022/10/04 02:39:20;;;;;;;24.15;15.45;;;;;;;9.90;nan;102008.09;5092878;28;20038;-53
2022/10/04 02:41:49;;;;;;;29.25;17.67;;;;;;;9.84;nan;101989.75;5092798;28;20093;-52
2022/10/04 02:44:42;;;;;;;24.52;18.10;;;;;;;9.78;nan;101979.31;5092906;28;20036;-52
2022/10/04 02:47:23;;;;;;;21.25;16.73;;;;;;;9.45;nan;101927.97;5074535;28;20031;-55
2022/10/04 02:49:52;;;;;;;28.30;20.00;;;;;;;9.67;nan;101966.28;5075038;28;20039;-59
2022/10/04 02:52:23;;;;;;;30.88;19.65;;;;;;;9.68;nan;101970.66;5074751;28;20490;-49
2022/10/04 02:54:55;;;;;;;30.05;20.63;;;;;;;9.36;nan;101909.66;5080450;28;20472;-52
2022/10/04 02:57:22;;;;;;;29.75;19.30;;;;;;;9.28;nan;101907.09;5054789;28;20464;-55
2022/10/04 02:59:48;;;;;;;33.40;21.15;;;;;;;9.31;nan;101914.09;5054576;28;20028;-56
2022/10/04 03:02:28;;;;;;;31.70;20.63;;;;;;;9.67;nan;101968.91;5072475;28;20116;-57
2022/10/04 03:04:59;;;;;;;26.98;18.50;;;;;;;9.60;nan;101965.44;5072550;28;20051;-51
2022/10/04 03:07:25;;;;;;;28.88;19.35;;;;;;;9.49;nan;101942.78;5071890;28;20496;-51
2022/10/04 03:09:51;;;;;;;29.70;20.35;;;;;;;9.49;nan;101955.94;5054244;28;20020;-56
2022/10/04 03:12:17;;;;;;;35.20;20.85;;;;;;;9.51;nan;101956.81;5072235;28;20040;-54
2022/10/04 03:14:43;;;;;;;29.75;19.58;;;;;;;9.19;nan;101901.97;5071935;28;20472;-53
2022/10/04 03:17:09;;;;;;;31.17;21.40;;;;;;;9.18;nan;101907.22;5054133;28;20056;-51
2022/10/04 03:19:34;;;;;;;25.85;21.02;;;;;;;9.46;nan;101946.34;5072966;28;20071;-58
2022/10/04 03:22:03;;;;;;;30.88;20.85;;;;;;;9.45;nan;101939.34;5092245;28;20294;-57
2022/10/04 03:24:36;;;;;;;35.83;22.10;;;;;;;9.37;nan;101924.56;5074189;28;20280;-55
2022/10/04 03:27:06;;;;;;;38.83;23.15;;;;;;;9.27;nan;101901.88;5074249;28;20443;-57
2022/10/04 03:29:32;;;;;;;36.05;24.13;;;;;;;9.52;nan;101943.66;5074289;28;20046;-52
2022/10/04 03:32:00;;;;;;;35.40;23.20;;;;;;;9.57;nan;101943.63;5092348;28;20028;-53
2022/10/04 03:34:36;;;;;;;36.65;23.65;;;;;;;9.57;nan;101928.69;5073684;28;20103;-54
2022/10/04 03:37:02;;;;;;;34.72;24.45;;;;;;;9.23;nan;101861.63;5074212;28;20433;-59
2022/10/04 03:39:32;;;;;;;34.35;23.13;;;;;;;9.58;nan;101921.69;5074036;28;20493;-54
2022/10/04 03:41:59;;;;;;;37.58;23.05;;;;;;;9.43;nan;101892.94;5092287;28;20038;-56
2022/10/04 03:44:25;;;;;;;35.80;24.15;;;;;;;9.46;nan;101898.16;5073903;28;20035;-53
2022/10/04 03:46:50;;;;;;;37.35;23.80;;;;;;;9.23;nan;101842.34;5092558;28;20032;-54
2022/10/04 03:49:35;;;;;;;39.53;22.75;;;;;;;9.71;nan;101925.03;5096144;28;20398;-53
2022/10/04 03:52:02;;;;;;;35.53;22.95;;;;;;;9.41;nan;101878.94;5078410;28;20031;-51
2022/10/04 03:54:28;;;;;;;39.83;24.27;;;;;;;9.69;nan;101922.41;5068912;28;20044;-53
2022/10/04 03:56:54;;;;;;;33.78;22.08;;;;;;;9.70;nan;101924.16;5057595;28;20416;-55
2022/10/04 03:59:20;;;;;;;35.10;22.40;;;;;;;9.47;nan;101887.63;5057625;28;20467;-50
2022/10/04 04:02:05;;;;;;;37.80;22.92;;;;;;;9.66;nan;101925.06;5075763;28;20037;-54
2022/10/04 04:04:30;;;;;;;33.13;22.50;;;;;;;9.70;nan;101918.03;5075579;28;20041;-58
2022/10/04 04:07:02;;;;;;;38.22;23.42;;;;;;;9.69;nan;101918.94;5057696;28;20056;-49
2022/10/04 04:09:33;;;;;;;33.20;21.45;;;;;;;9.55;nan;101906.81;5073573;28;20140;-54
2022/10/04 04:12:00;;;;;;;33.58;20.63;;;;;;;9.28;nan;101864.22;5096202;28;20044;-54
2022/10/04 04:14:26;;;;;;;34.80;22.00;;;;;;;9.59;nan;101928.69;5077713;28;20027;-52
2022/10/04 04:16:54;;;;;;;37.75;23.15;;;;;;;9.62;nan;101920.75;5077399;28;20037;-56
2022/10/04 04:19:23;;;;;;;32.42;23.02;;;;;;;9.63;nan;101937.41;5077623;28;20032;-57
2022/10/04 04:21:49;;;;;;;31.13;20.98;;;;;;;9.32;nan;101869.41;5077545;28;20074;-50
2022/10/04 04:24:25;;;;;;;34.75;21.88;;;;;;;9.26;nan;101852.84;5077702;28;20059;-56
2022/10/04 04:26:55;;;;;;;32.92;21.88;;;;;;;9.69;nan;101919.78;5077496;28;20070;-52
2022/10/04 04:29:22;;;;;;;30.77;21.23;;;;;;;9.68;nan;101910.19;5095600;28;20055;-54
2022/10/04 04:31:51;;;;;;;31.40;22.27;;;;;;;9.65;nan;101894.44;5095696;28;20028;-55
2022/10/04 04:34:23;;;;;;;30.55;20.63;;;;;;;9.50;nan;101869.22;5095477;28;20040;-59
2022/10/04 04:36:49;;;;;;;27.83;20.13;;;;;;;9.53;nan;101877.06;5060721;28;20028;-52
2022/10/04 04:39:33;;;;;;;31.00;20.90;;;;;;;9.85;nan;101926.63;5095454;28;20081;-52
2022/10/04 04:42:09;;;;;;;31.67;19.55;;;;;;;9.55;nan;101864.75;5095283;28;20437;-54
2022/10/04 04:44:37;;;;;;;27.80;19.23;;;;;;;9.83;nan;101932.78;5095199;28;20490;-54
2022/10/04 04:47:07;;;;;;;30.63;20.38;;;;;;;9.87;nan;101922.22;5095090;28;20437;-54
2022/10/04 04:49:32;;;;;;;28.13;20.33;;;;;;;9.87;nan;101919.56;5077288;28;20050;-56
2022/10/04 04:51:58;;;;;;;31.42;19.02;;;;;;;9.88;nan;101921.34;5076695;28;20539;-55
2022/10/04 04:54:26;;;;;;;29.85;19.58;;;;;;;9.85;nan;101916.09;5094947;28;20032;-50
2022/10/04 04:56:53;;;;;;;30.13;20.23;;;;;;;9.56;nan;101866.50;5077062;28;20085;-54
2022/10/04 04:59:20;;;;;;;31.33;19.65;;;;;;;9.66;nan;101874.28;5076883;28;20031;-53
2022/10/04 05:01:47;;;;;;;27.10;19.10;;;;;;;9.91;nan;101918.66;5076419;28;20493;-55
2022/10/04 05:04:17;;;;;;;28.35;18.85;;;;;;;9.90;nan;101911.66;5094498;28;20036;-56
2022/10/04 05:07:05;;;;;;;30.02;18.38;;;;;;;9.87;nan;101916.94;5076677;28;20032;-55
2022/10/04 05:09:37;;;;;;;25.15;17.63;;;;;;;9.86;nan;101922.25;5076919;28;20546;-52
2022/10/04 05:12:06;;;;;;;27.48;18.38;;;;;;;9.81;nan;101918.78;5092681;28;20032;-50
2022/10/04 05:14:34;;;;;;;30.42;19.17;;;;;;;9.59;nan;101884.00;5094692;28;20040;-55
2022/10/04 05:16:59;;;;;;;27.95;18.05;;;;;;;9.66;nan;101890.91;5076172;28;20028;-59
2022/10/04 05:19:35;;;;;;;29.10;19.00;;;;;;;9.49;nan;101867.47;5076330;28;20043;-50
2022/10/04 05:22:12;;;;;;;31.13;19.25;;;;;;;9.40;nan;101843.91;5076005;28;20036;-52
2022/10/04 05:24:43;;;;;;;34.25;19.65;;;;;;;9.69;nan;101911.91;5094453;28;20459;-54
2022/10/04 05:27:15;;;;;;;28.10;18.75;;;;;;;9.62;nan;101891.84;5076129;28;20117;-54
2022/10/04 05:29:59;;;;;;;31.77;19.85;;;;;;;9.69;nan;101900.53;5094160;28;20480;-53
2022/10/04 05:32:32;;;;;;;31.13;18.65;;;;;;;9.66;nan;101900.56;5075576;28;20436;-53
2022/10/04 05:34:58;;;;;;;34.88;19.63;;;;;;;9.62;nan;101897.09;5093783;28;20162;-56
2022/10/04 05:37:26;;;;;;;30.35;19.33;;;;;;;9.56;nan;101890.16;5094195;28;20044;-55
2022/10/04 05:40:13;;;;;;;25.90;19.83;;;;;;;9.54;nan;101894.56;5076066;28;20399;-54
2022/10/04 05:42:44;;;;;;;32.47;20.25;;;;;;;9.12;nan;101805.72;5093923;28;20055;-60
2022/10/04 05:45:23;;;;;;;30.20;20.25;;;;;;;9.34;nan;101846.59;5094237;28;20032;-54
2022/10/04 05:47:56;;;;;;;33.97;19.77;;;;;;;9.19;nan;101823.16;5075916;28;20050;-56
2022/10/04 05:50:29;;;;;;;30.10;19.00;;;;;;;9.51;nan;101875.34;5075902;28;20032;-52
2022/10/04 05:53:07;;;;;;;37.08;18.50;;;;;;;9.45;nan;101864.91;5094450;28;20133;-53
2022/10/04 05:55:55;;;;;;;36.60;19.02;;;;;;;9.54;nan;101878.78;5094036;28;20446;-55
2022/10/04 05:59:05;;;;;;;28.42;19.27;;;;;;;9.58;nan;101877.00;5093906;28;20035;-56
2022/10/04 06:02:00;;;;;;;33.92;19.95;;;;;;;9.55;nan;101869.13;5094061;28;20082;-57
2022/10/04 06:04:35;;;;;;;29.80;19.52;;;;;;;9.59;nan;101884.00;5093800;28;20548;-54
2022/10/04 06:07:20;;;;;;;27.95;19.55;;;;;;;9.52;nan;101875.31;5075322;28;20414;-56
2022/10/04 06:10:04;;;;;;;29.25;18.60;;;;;;;9.52;nan;101875.31;5093096;28;20039;-56
2022/10/04 06:12:47;;;;;;;26.17;19.25;;;;;;;9.52;nan;101866.53;5093680;28;20024;-50
2022/10/04 06:15:21;;;;;;;29.35;18.20;;;;;;;9.50;nan;101858.69;5093197;28;20043;-55
2022/10/04 06:18:09;;;;;;;30.90;20.10;;;;;;;9.48;nan;101872.75;5093562;28;20127;-51
2022/10/04 06:20:34;;;;;;;31.10;20.80;;;;;;;9.49;nan;101877.09;5075697;28;20034;-58
2022/10/04 06:23:01;;;;;;;38.20;20.20;;;;;;;9.38;nan;101866.72;5093437;28;20024;-53
2022/10/04 06:25:33;;;;;;;29.88;20.13;;;;;;;9.41;nan;101869.31;5093008;28;20103;-53
2022/10/04 06:28:01;;;;;;;34.17;20.50;;;;;;;9.44;nan;101857.88;5074750;28;20368;-53
2022/10/04 06:30:30;;;;;;;36.40;22.13;;;;;;;9.20;nan;101814.38;5092579;28;20032;-56
2022/10/04 06:33:08;;;;;;;38.53;22.35;;;;;;;9.13;nan;101796.06;5057711;28;20360;-51
2022/10/04 06:35:46;;;;;;;31.05;21.85;;;;;;;9.48;nan;101860.47;5092709;28;20164;-53
2022/10/04 06:38:43;;;;;;;34.63;22.25;;;;;;;9.51;nan;101849.06;5092728;28;20429;-55
2022/10/04 06:41:50;;;;;;;39.13;23.02;;;;;;;9.55;nan;101853.38;5079986;28;20101;-58
2022/10/04 06:44:27;;;;;;;33.70;21.75;;;;;;;9.57;nan;101855.09;5030217;28;20095;-59
2022/10/04 06:47:22;;;;;;;36.45;23.25;;;;;;;9.61;nan;101855.94;5066557;28;20044;-53
2022/10/04 06:49:59;;;;;;;34.70;23.50;;;;;;;9.54;nan;101839.34;5084767;28;20391;-56
2022/10/04 06:52:34;;;;;;;36.75;22.67;;;;;;;9.63;nan;101849.75;5057928;28;20506;-54
2022/10/04 06:55:20;;;;;;;34.40;22.70;;;;;;;9.72;nan;101845.28;5092140;28;20036;-53
2022/10/04 06:57:53;;;;;;;36.13;21.92;;;;;;;9.85;nan;101860.00;5092543;28;20016;-55
2022/10/04 07:00:23;;;;;;;32.47;22.77;;;;;;;9.59;nan;101797.25;5074547;28;20034;-58
2022/10/04 07:02:51;;;;;;;34.22;22.20;;;;;;;10.04;nan;101857.09;5074688;28;20158;-59
2022/10/04 07:05:47;;;;;;;36.08;23.02;;;;;;;10.21;nan;101854.28;5092680;28;20035;-56
2022/10/04 07:08:46;;;;;;;37.88;21.95;;;;;;;10.44;nan;101852.16;5074549;28;20391;-60
2022/10/04 07:11:33;;;;;;;34.28;21.15;;;;;;;10.72;nan;101847.31;5074575;28;20031;-58
2022/10/04 07:14:01;;;;;;;28.50;19.90;;;;;;;11.04;nan;101849.38;5092541;28;20467;-57
2022/10/04 07:16:34;;;;;;;24.30;19.13;;;;;;;11.26;nan;101848.09;5092861;28;20039;-56
2022/10/04 07:19:18;;;;;;;28.52;18.67;;;;;;;11.53;nan;101850.16;5092082;28;20039;-57
2022/10/04 07:21:52;;;;;;;24.65;17.02;;;;;;;11.79;nan;101853.16;5072300;28;20062;-58
2022/10/04 07:24:46;;;;;;;24.13;16.20;;;;;;;11.86;nan;101851.25;5091518;28;20482;-57
2022/10/04 07:30:44;;;;;;;20.85;14.82;;;;;;;11.64;nan;101805.13;5037385;28;20043;-55
2022/10/04 07:33:15;;;;;;;23.63;14.73;;;;;;;11.62;nan;101805.16;5056646;28;20471;-55
2022/10/04 07:35:47;;;;;;;19.58;14.13;;;;;;;12.01;nan;101861.50;5073346;28;20032;-56
2022/10/04 07:38:13;;;;;;;19.77;14.43;;;;;;;12.10;nan;101870.97;5073542;28;20050;-57
2022/10/04 07:41:18;;;;;;;19.03;14.27;;;;;;;11.96;nan;101821.16;5072921;28;20114;-58
2022/10/04 07:43:43;;;;;;;23.45;15.80;;;;;;;12.41;nan;101874.63;5091128;28;20292;-57
2022/10/04 07:46:41;;;;;;;18.42;13.73;;;;;;;12.63;nan;101883.81;5091098;28;20395;-59
2022/10/04 07:49:21;;;;;;;19.20;13.43;;;;;;;12.77;nan;101872.88;5072292;28;20044;-55
2022/10/04 07:52:06;;;;;;;16.25;13.05;;;;;;;12.80;nan;101871.03;5091249;28;20074;-57
2022/10/04 07:54:36;;;;;;;17.75;12.50;;;;;;;12.94;nan;101887.41;5091721;28;20389;-56
2022/10/04 07:57:27;;;;;;;23.85;13.70;;;;;;;12.99;nan;101890.78;5072895;28;20032;-57
2022/10/04 08:00:22;;;;;;;20.55;12.65;;;;;;;12.80;nan;101862.25;5091422;28;20032;-56
2022/10/04 08:03:25;;;;;;;15.88;12.70;;;;;;;12.93;nan;101888.31;5091117;28;20038;-55
2022/10/04 08:06:04;;;;;;;17.83;12.88;;;;;;;12.86;nan;101881.47;5090351;28;20051;-58
2022/10/04 08:08:38;;;;;;;17.48;14.05;;;;;;;12.89;nan;101902.53;5090876;28;20048;-59
2022/10/04 08:11:11;;;;;;;18.83;13.43;;;;;;;12.78;nan;101890.47;5072841;28;20044;-59
2022/10/04 08:13:50;;;;;;;17.05;13.93;;;;;;;12.76;nan;101900.19;5091397;28;20034;-57
2022/10/04 08:16:31;;;;;;;15.60;12.85;;;;;;;12.90;nan;101888.38;5090828;28;20517;-57
2022/10/04 08:19:11;;;;;;;18.38;13.65;;;;;;;13.41;nan;101893.25;5072905;28;20032;-58
2022/10/04 08:22:04;;;;;;;15.77;12.70;;;;;;;14.09;nan;101878.03;5072742;28;20031;-59
2022/10/04 08:25:16;;;;;;;17.15;11.60;;;;;;;14.79;nan;101892.59;5090313;28;20096;-60
2022/10/04 08:31:13;;;;;;;15.10;10.00;;;;;;;16.24;nan;101900.59;5005549;28;20049;-59
2022/10/04 08:33:44;;;;;;;14.30;10.30;;;;;;;16.02;nan;101864.31;5092156;28;20060;-58
2022/10/04 08:36:31;;;;;;;13.35;11.57;;;;;;;15.76;nan;101871.44;5076101;28;20472;-57
2022/10/04 08:38:57;;;;;;;16.92;10.38;;;;;;;15.48;nan;101912.34;5093919;28;20051;-59
2022/10/04 08:41:28;;;;;;;12.57;10.93;;;;;;;15.25;nan;101917.53;5059312;28;20020;-57
2022/10/04 08:44:19;;;;;;;14.68;11.50;;;;;;;14.58;nan;101861.50;5076043;28;20380;-60
2022/10/04 08:47:05;;;;;;;18.25;10.82;;;;;;;14.73;nan;101921.09;5094106;28;20103;-58
2022/10/04 08:49:56;;;;;;;12.27;10.40;;;;;;;14.98;nan;101909.63;5094152;28;20039;-58
2022/10/04 08:52:28;;;;;;;13.52;9.90;;;;;;;15.92;nan;101922.19;5059202;28;20028;-58
2022/10/04 08:55:28;;;;;;;15.02;9.88;;;;;;;16.98;nan;101919.78;5094180;28;20390;-57
2022/10/04 08:58:02;;;;;;;13.65;10.25;;;;;;;17.88;nan;101926.47;5094145;28;20028;-59
2022/10/04 09:00:33;;;;;;;12.55;10.13;;;;;;;18.43;nan;101931.88;5093847;28;20039;-56
2022/10/04 09:03:01;;;;;;;;;;;;;;;19.29;nan;101951.63;5094684;28;20040;-57
2022/10/04 09:05:40;;;;;;;15.10;9.95;;;;;;;19.16;nan;101898.94;5094051;28;19919;-58
2022/10/04 09:08:18;;;;;;;13.10;9.55;;;;;;;20.10;nan;101949.09;5075576;28;20052;-61
2022/10/04 09:11:15;;;;;;;11.55;8.90;;;;;;;20.70;nan;101960.03;5075697;28;20032;-59
2022/10/04 09:13:46;;;;;;;10.85;8.38;;;;;;;21.05;nan;101966.91;5093623;28;20161;-60
2022/10/04 09:16:17;;;;;;;16.08;7.65;;;;;;;20.75;nan;101966.00;5093627;28;20020;-60
2022/10/04 09:19:18;;;;;;;10.15;7.82;;;;;;;19.71;nan;101905.81;5075731;28;20032;-59
2022/10/04 09:21:55;;;;;;;10.05;7.50;;;;;;;19.24;nan;101947.44;5075819;28;20425;-62
2022/10/04 09:24:58;;;;;;;11.73;7.97;;;;;;;18.55;nan;101934.00;5093685;28;20122;-60
2022/10/04 09:27:49;;;;;;;8.43;7.43;;;;;;;18.22;nan;101871.59;5093436;28;20052;-60
2022/10/04 09:30:37;;;;;;;8.57;7.05;;;;;;;18.82;nan;101905.13;5075587;28;20028;-57
2022/10/04 09:33:28;;;;;;;10.38;7.80;;;;;;;18.58;nan;101795.19;5093141;28;20058;-57
2022/10/04 09:36:05;;;;;;;10.50;7.22;;;;;;;19.35;nan;101897.91;5074654;28;20464;-58
2022/10/04 09:38:43;;;;;;;9.70;6.88;;;;;;;19.69;nan;101910.38;5093072;28;20079;-60
2022/10/04 09:41:27;;;;;;;10.00;7.18;;;;;;;19.49;nan;101903.44;5092905;28;20355;-58
2022/10/04 09:44:07;;;;;;;10.68;6.95;;;;;;;19.04;nan;101914.63;5075276;28;20028;-59
2022/10/04 09:46:48;;;;;;;9.98;7.88;;;;;;;18.60;nan;101923.97;5092308;28;20031;-60
2022/10/04 09:49:49;;;;;;;11.07;7.67;;;;;;;17.97;nan;101880.75;5092909;28;20032;-59
2022/10/04 09:52:32;;;;;;;11.77;7.97;;;;;;;18.15;nan;101913.69;5093263;28;20042;-60
2022/10/04 09:55:06;;;;;;;9.18;7.85;;;;;;;17.74;nan;101862.31;5092574;28;20055;-59
2022/10/04 09:58:17;;;;;;;11.57;7.88;;;;;;;18.19;nan;101911.72;5092892;28;20123;-57
2022/10/04 10:00:48;;;;;;;13.30;8.13;;;;;;;18.31;nan;101872.03;5092695;28;20028;-58
2022/10/04 10:03:50;;;;;;;10.13;8.13;;;;;;;18.78;nan;101917.75;5073846;28;20052;-60
2022/10/04 10:06:41;;;;;;;10.13;8.43;;;;;;;18.60;nan;101915.09;5074756;28;20131;-58
2022/10/04 10:15:26;;;;;;;11.32;7.95;;;;;;;17.87;nan;101899.88;5092792;28;20089;-59
2022/10/04 10:17:57;;;;;;;10.10;7.47;;;;;;;17.97;nan;101906.53;5074752;28;20028;-60
2022/10/04 10:21:00;;;;;;;8.40;7.03;;;;;;;18.08;nan;101909.56;5057511;28;20551;-58
2022/10/04 10:23:50;;;;;;;9.32;7.28;;;;;;;18.12;nan;101916.47;5092348;28;20036;-57
2022/10/04 10:26:15;;;;;;;11.05;8.07;;;;;;;17.86;nan;101906.16;5074304;28;20036;-59
2022/10/04 10:29:01;;;;;;;10.18;8.15;;;;;;;17.68;nan;101867.91;5092481;28;20040;-57
2022/10/04 10:31:52;;;;;;;7.88;7.05;;;;;;;17.79;nan;101896.72;5074601;28;20391;-59
2022/10/04 10:34:32;;;;;;;12.23;7.40;;;;;;;18.10;nan;101878.38;5091935;28;20513;-60
2022/10/04 10:37:07;;;;;;;9.73;6.97;;;;;;;18.42;nan;101895.47;5092292;28;20044;-59
2022/10/04 10:39:55;;;;;;;11.45;7.32;;;;;;;18.33;nan;101888.78;5074232;28;20031;-60
2022/10/04 10:42:39;;;;;;;11.45;7.40;;;;;;;18.43;nan;101889.22;5092400;28;20489;-60
2022/10/04 10:45:13;;;;;;;8.80;6.50;;;;;;;18.48;nan;101898.75;5092083;28;20111;-58
2022/10/04 10:47:46;;;;;;;11.45;6.15;;;;;;;18.68;nan;101892.44;5092169;28;20046;-59
2022/10/04 10:50:33;;;;;;;9.18;6.63;;;;;;;19.00;nan;101901.53;5091856;28;20028;-60
2022/10/04 10:53:23;;;;;;;8.35;7.15;;;;;;;19.29;nan;101890.22;5073849;28;20462;-59
2022/10/04 10:56:13;;;;;;;11.32;6.70;;;;;;;19.61;nan;101865.38;5073809;28;20028;-59
2022/10/04 10:58:57;;;;;;;9.43;6.78;;;;;;;20.15;nan;101901.59;5091885;28;20039;-59
2022/10/04 11:02:00;;;;;;;9.27;5.70;;;;;;;20.81;nan;101904.06;5091859;28;20043;-58
2022/10/04 11:04:53;;;;;;;8.10;5.93;;;;;;;21.54;nan;101923.84;5091544;28;20116;-59
2022/10/04 11:07:39;;;;;;;6.85;5.85;;;;;;;21.92;nan;101924.22;5091494;28;20386;-57
2022/10/04 11:10:42;;;;;;;7.45;5.60;;;;;;;21.70;nan;101930.84;5091600;28;20398;-61
2022/10/04 11:13:28;;;;;;;11.40;6.65;;;;;;;21.44;nan;101918.19;5091379;28;20066;-58
2022/10/04 11:16:20;;;;;;;7.55;5.65;;;;;;;20.83;nan;101923.59;5091794;28;20024;-59
2022/10/04 11:18:57;;;;;;;10.02;5.47;;;;;;;20.13;nan;101894.59;5091786;28;20390;-59
2022/10/04 11:21:43;;;;;;;10.70;6.57;;;;;;;20.12;nan;101916.94;5091374;28;20020;-60
2022/10/04 11:25:02;;;;;;;10.13;6.60;;;;;;;20.11;nan;101896.50;5091377;28;20081;-60
2022/10/04 11:27:30;;;;;;;12.30;6.35;;;;;;;20.47;nan;101905.16;5008974;28;20037;-59
2022/10/04 11:30:11;;;;;;;8.43;6.40;;;;;;;21.21;nan;101910.69;5008907;28;20046;-60
2022/10/04 11:32:36;;;;;;;10.45;6.57;;;;;;;21.24;nan;101906.00;5065406;28;20394;-59
2022/10/04 11:35:32;;;;;;;8.60;5.57;;;;;;;21.15;nan;101909.22;5091214;28;20040;-58
2022/10/04 11:38:10;;;;;;;7.50;6.05;;;;;;;21.73;nan;101925.31;5091334;28;20329;-60
2022/10/04 11:41:06;;;;;;;9.18;6.28;;;;;;;21.91;nan;101909.06;5073618;28;20039;-63
2022/10/04 11:43:40;;;;;;;9.05;6.45;;;;;;;21.93;nan;101875.84;5073517;28;20046;-61
2022/10/04 11:46:51;;;;;;;10.20;6.95;;;;;;;22.36;nan;101915.03;5091315;28;20024;-59
2022/10/04 11:49:34;;;;;;;7.80;6.03;;;;;;;22.31;nan;101916.31;5039486;28;20068;-60
2022/10/04 11:52:30;;;;;;;7.88;5.90;;;;;;;22.13;nan;101878.09;5073651;28;20119;-58
2022/10/04 11:55:23;;;;;;;8.93;6.30;;;;;;;23.05;nan;101913.22;5090891;28;20028;-60
2022/10/04 11:57:53;;;;;;;9.63;6.05;;;;;;;24.12;nan;101916.44;5090786;28;20039;-60
2022/10/04 12:00:21;;;;;;;7.75;5.88;;;;;;;25.14;nan;101909.69;5072852;28;20035;-57
2022/10/04 12:03:09;;;;;;;7.93;6.03;;;;;;;25.72;nan;101908.75;5072978;28;20067;-60
2022/10/04 12:05:57;;;;;;;8.10;6.25;;;;;;;26.34;nan;101914.53;5072729;28;20036;-59
2022/10/04 12:08:30;;;;;;;9.05;5.88;;;;;;;26.64;nan;101906.63;5074103;28;20055;-61
2022/10/04 12:11:10;;;;;;;7.85;5.80;;;;;;;26.20;nan;101909.41;5094746;28;20040;-59
2022/10/04 12:14:04;;;;;;;7.65;5.88;;;;;;;26.19;nan;101916.63;5076890;28;20414;-61
2022/10/04 12:16:46;;;;;;;9.85;6.07;;;;;;;26.56;nan;101873.13;5076501;28;20505;-61
2022/10/04 12:19:36;;;;;;;8.18;6.20;;;;;;;27.03;nan;101883.50;5076791;28;20047;-59
2022/10/04 12:22:12;;;;;;;12.68;6.40;;;;;;;27.37;nan;101863.44;5076501;28;20032;-61
2022/10/04 12:24:57;;;;;;;9.55;6.82;;;;;;;27.09;nan;101885.69;5076811;28;20064;-60
2022/10/04 12:27:37;;;;;;;7.13;6.38;;;;;;;27.27;nan;101884.13;5076818;28;20039;-59
2022/10/04 12:30:03;;;;;;;10.85;6.05;;;;;;;27.58;nan;101870.69;5060271;28;20047;-60
2022/10/04 12:32:33;;;;;;;8.70;6.15;;;;;;;27.63;nan;101858.47;5094649;28;20467;-59
2022/10/04 12:35:07;;;;;;;7.55;5.75;;;;;;;28.06;nan;101873.63;5076201;28;20505;-60
2022/10/04 12:37:42;;;;;;;9.10;5.65;;;;;;;28.45;nan;101876.31;5094691;28;20036;-60
2022/10/04 12:40:26;;;;;;;9.23;5.13;;;;;;;27.96;nan;101853.78;5094752;28;20028;-60